sensor_id;sensor_type;location;lat;lon;timestamp;temperature;humidity
20526;DHT22;10421;49.142;9.232;2023-06-14T00:01:59;22.10;45.40
20526;DHT22;10421;49.142;9.232;2023-06-14T00:04:26;22.10;45.50
20526;DHT22;10421;49.142;9.232;2023-06-14T00:06:53;22.10;45.50
20526;DHT22;10421;49.142;9.232;2023-06-14T00:09:23;22.10;45.50
20526;DHT22;10421;49.142;9.232;2023-06-14T00:11:50;22.00;45.50
20526;DHT22;10421;49.142;9.232;2023-06-14T00:14:20;22.00;45.70
20526;DHT22;10421;49.142;9.232;2023-06-14T00:16:47;22.00;45.70
20526;DHT22;10421;49.142;9.232;2023-06-14T00:19:14;21.90;45.80
20526;DHT22;10421;49.142;9.232;2023-06-14T00:21:41;21.90;45.80
20526;DHT22;10421;49.142;9.232;2023-06-14T00:24:08;21.90;45.80
20526;DHT22;10421;49.142;9.232;2023-06-14T00:26:37;21.90;45.80
20526;DHT22;10421;49.142;9.232;2023-06-14T00:29:05;21.90;45.80
20526;DHT22;10421;49.142;9.232;2023-06-14T00:31:32;21.90;45.80
20526;DHT22;10421;49.142;9.232;2023-06-14T00:33:59;21.90;45.70
20526;DHT22;10421;49.142;9.232;2023-06-14T00:36:26;21.90;45.60
20526;DHT22;10421;49.142;9.232;2023-06-14T00:38:53;21.90;45.70
20526;DHT22;10421;49.142;9.232;2023-06-14T00:41:20;21.90;45.70
20526;DHT22;10421;49.142;9.232;2023-06-14T00:43:50;21.80;45.60
20526;DHT22;10421;49.142;9.232;2023-06-14T00:46:17;21.80;45.60
20526;DHT22;10421;49.142;9.232;2023-06-14T00:48:45;21.80;45.60
20526;DHT22;10421;49.142;9.232;2023-06-14T00:51:12;21.80;45.70
20526;DHT22;10421;49.142;9.232;2023-06-14T00:53:39;21.80;45.80
20526;DHT22;10421;49.142;9.232;2023-06-14T00:56:11;21.80;45.80
20526;DHT22;10421;49.142;9.232;2023-06-14T00:58:39;21.80;45.80
20526;DHT22;10421;49.142;9.232;2023-06-14T01:01:07;21.80;45.80
20526;DHT22;10421;49.142;9.232;2023-06-14T01:03:34;21.70;45.70
20526;DHT22;10421;49.142;9.232;2023-06-14T01:06:08;21.80;45.80
20526;DHT22;10421;49.142;9.232;2023-06-14T01:08:47;21.80;45.80
20526;DHT22;10421;49.142;9.232;2023-06-14T01:11:19;21.80;45.80
20526;DHT22;10421;49.142;9.232;2023-06-14T01:13:49;21.80;45.90
20526;DHT22;10421;49.142;9.232;2023-06-14T01:16:20;21.80;45.90
20526;DHT22;10421;49.142;9.232;2023-06-14T01:18:47;21.80;45.90
20526;DHT22;10421;49.142;9.232;2023-06-14T01:21:21;21.80;46.10
20526;DHT22;10421;49.142;9.232;2023-06-14T01:23:50;21.80;46.40
20526;DHT22;10421;49.142;9.232;2023-06-14T01:26:19;21.90;46.80
20526;DHT22;10421;49.142;9.232;2023-06-14T01:28:47;21.80;46.70
20526;DHT22;10421;49.142;9.232;2023-06-14T01:31:17;21.80;46.90
20526;DHT22;10421;49.142;9.232;2023-06-14T01:33:48;21.80;47.10
20526;DHT22;10421;49.142;9.232;2023-06-14T01:36:15;21.70;47.20
20526;DHT22;10421;49.142;9.232;2023-06-14T01:38:44;21.70;47.30
20526;DHT22;10421;49.142;9.232;2023-06-14T01:41:15;21.70;47.30
20526;DHT22;10421;49.142;9.232;2023-06-14T01:43:42;21.60;47.30
20526;DHT22;10421;49.142;9.232;2023-06-14T01:46:10;21.60;47.50
20526;DHT22;10421;49.142;9.232;2023-06-14T01:48:38;21.60;47.70
20526;DHT22;10421;49.142;9.232;2023-06-14T01:51:04;21.50;47.60
20526;DHT22;10421;49.142;9.232;2023-06-14T01:53:31;21.50;47.60
20526;DHT22;10421;49.142;9.232;2023-06-14T01:55:58;21.50;47.60
20526;DHT22;10421;49.142;9.232;2023-06-14T01:58:26;21.50;47.60
20526;DHT22;10421;49.142;9.232;2023-06-14T02:00:54;21.50;47.80
20526;DHT22;10421;49.142;9.232;2023-06-14T02:03:22;21.50;48.10
20526;DHT22;10421;49.142;9.232;2023-06-14T02:05:48;21.50;48.40
20526;DHT22;10421;49.142;9.232;2023-06-14T02:08:15;21.50;48.60
20526;DHT22;10421;49.142;9.232;2023-06-14T02:10:42;21.50;48.70
20526;DHT22;10421;49.142;9.232;2023-06-14T02:13:08;21.50;48.80
20526;DHT22;10421;49.142;9.232;2023-06-14T02:15:37;21.40;48.80
20526;DHT22;10421;49.142;9.232;2023-06-14T02:18:04;21.40;48.80
20526;DHT22;10421;49.142;9.232;2023-06-14T02:20:31;21.40;48.70
20526;DHT22;10421;49.142;9.232;2023-06-14T02:22:57;21.40;48.70
20526;DHT22;10421;49.142;9.232;2023-06-14T02:25:24;21.40;48.70
20526;DHT22;10421;49.142;9.232;2023-06-14T02:27:53;21.40;48.80
20526;DHT22;10421;49.142;9.232;2023-06-14T02:30:20;21.30;48.70
20526;DHT22;10421;49.142;9.232;2023-06-14T02:32:48;21.30;48.80
20526;DHT22;10421;49.142;9.232;2023-06-14T02:35:16;21.30;48.80
20526;DHT22;10421;49.142;9.232;2023-06-14T02:37:43;21.30;48.90
20526;DHT22;10421;49.142;9.232;2023-06-14T02:40:10;21.30;48.80
20526;DHT22;10421;49.142;9.232;2023-06-14T02:42:37;21.20;48.80
20526;DHT22;10421;49.142;9.232;2023-06-14T02:45:05;21.20;48.80
20526;DHT22;10421;49.142;9.232;2023-06-14T02:47:32;21.20;49.00
20526;DHT22;10421;49.142;9.232;2023-06-14T02:50:00;21.10;49.10
20526;DHT22;10421;49.142;9.232;2023-06-14T02:52:27;21.10;49.50
20526;DHT22;10421;49.142;9.232;2023-06-14T02:54:54;21.00;49.50
20526;DHT22;10421;49.142;9.232;2023-06-14T02:57:22;21.00;49.70
20526;DHT22;10421;49.142;9.232;2023-06-14T02:59:48;21.00;49.90
20526;DHT22;10421;49.142;9.232;2023-06-14T03:02:15;20.90;50.20
20526;DHT22;10421;49.142;9.232;2023-06-14T03:04:42;20.80;50.10
20526;DHT22;10421;49.142;9.232;2023-06-14T03:07:11;20.90;50.40
20526;DHT22;10421;49.142;9.232;2023-06-14T03:09:39;20.80;50.50
20526;DHT22;10421;49.142;9.232;2023-06-14T03:12:06;20.80;50.80
20526;DHT22;10421;49.142;9.232;2023-06-14T03:14:35;20.80;50.80
20526;DHT22;10421;49.142;9.232;2023-06-14T03:17:02;20.80;50.80
20526;DHT22;10421;49.142;9.232;2023-06-14T03:19:30;20.70;50.70
20526;DHT22;10421;49.142;9.232;2023-06-14T03:21:57;20.70;50.90
20526;DHT22;10421;49.142;9.232;2023-06-14T03:24:25;20.60;50.90
20526;DHT22;10421;49.142;9.232;2023-06-14T03:26:54;20.60;51.00
20526;DHT22;10421;49.142;9.232;2023-06-14T03:29:22;20.60;51.20
20526;DHT22;10421;49.142;9.232;2023-06-14T03:31:58;20.60;51.30
20526;DHT22;10421;49.142;9.232;2023-06-14T03:34:26;20.50;51.50
20526;DHT22;10421;49.142;9.232;2023-06-14T03:36:53;20.50;52.10
20526;DHT22;10421;49.142;9.232;2023-06-14T03:39:19;20.50;51.60
20526;DHT22;10421;49.142;9.232;2023-06-14T03:41:47;20.40;51.70
20526;DHT22;10421;49.142;9.232;2023-06-14T03:44:16;20.40;51.80
20526;DHT22;10421;49.142;9.232;2023-06-14T03:46:43;20.40;52.10
20526;DHT22;10421;49.142;9.232;2023-06-14T03:49:10;20.40;52.10
20526;DHT22;10421;49.142;9.232;2023-06-14T03:51:37;20.40;52.20
20526;DHT22;10421;49.142;9.232;2023-06-14T03:54:05;20.40;52.30
20526;DHT22;10421;49.142;9.232;2023-06-14T03:56:32;20.40;52.30
20526;DHT22;10421;49.142;9.232;2023-06-14T03:59:00;20.40;52.40
20526;DHT22;10421;49.142;9.232;2023-06-14T04:01:27;20.40;52.60
20526;DHT22;10421;49.142;9.232;2023-06-14T04:03:56;20.40;52.60
20526;DHT22;10421;49.142;9.232;2023-06-14T04:06:23;20.40;52.70
20526;DHT22;10421;49.142;9.232;2023-06-14T04:08:57;20.40;52.60
20526;DHT22;10421;49.142;9.232;2023-06-14T04:11:26;20.40;52.70
20526;DHT22;10421;49.142;9.232;2023-06-14T04:13:53;20.40;52.90
20526;DHT22;10421;49.142;9.232;2023-06-14T04:16:23;20.30;52.90
20526;DHT22;10421;49.142;9.232;2023-06-14T04:18:49;20.30;53.10
20526;DHT22;10421;49.142;9.232;2023-06-14T04:21:17;20.20;53.20
20526;DHT22;10421;49.142;9.232;2023-06-14T04:23:44;20.20;53.40
20526;DHT22;10421;49.142;9.232;2023-06-14T04:26:11;20.10;53.30
20526;DHT22;10421;49.142;9.232;2023-06-14T04:28:37;20.10;53.50
20526;DHT22;10421;49.142;9.232;2023-06-14T04:31:06;20.00;53.70
20526;DHT22;10421;49.142;9.232;2023-06-14T04:33:35;20.00;54.00
20526;DHT22;10421;49.142;9.232;2023-06-14T04:36:09;19.90;54.20
20526;DHT22;10421;49.142;9.232;2023-06-14T04:38:37;19.80;54.40
20526;DHT22;10421;49.142;9.232;2023-06-14T04:41:03;19.80;54.70
20526;DHT22;10421;49.142;9.232;2023-06-14T04:43:31;19.70;55.00
20526;DHT22;10421;49.142;9.232;2023-06-14T04:46:03;19.70;55.30
20526;DHT22;10421;49.142;9.232;2023-06-14T04:48:31;19.60;55.40
20526;DHT22;10421;49.142;9.232;2023-06-14T04:50:59;19.40;55.60
20526;DHT22;10421;49.142;9.232;2023-06-14T04:53:26;19.40;55.90
20526;DHT22;10421;49.142;9.232;2023-06-14T04:55:54;19.40;56.00
20526;DHT22;10421;49.142;9.232;2023-06-14T04:58:21;19.40;56.10
20526;DHT22;10421;49.142;9.232;2023-06-14T05:00:48;19.40;56.20
20526;DHT22;10421;49.142;9.232;2023-06-14T05:03:14;19.40;56.40
20526;DHT22;10421;49.142;9.232;2023-06-14T05:05:43;19.40;56.50
20526;DHT22;10421;49.142;9.232;2023-06-14T05:08:12;19.40;56.40
20526;DHT22;10421;49.142;9.232;2023-06-14T05:10:39;19.50;56.40
20526;DHT22;10421;49.142;9.232;2023-06-14T05:13:05;19.50;56.50
20526;DHT22;10421;49.142;9.232;2023-06-14T05:15:32;19.60;57.20
20526;DHT22;10421;49.142;9.232;2023-06-14T05:17:59;19.60;56.60
20526;DHT22;10421;49.142;9.232;2023-06-14T05:20:26;19.60;56.60
20526;DHT22;10421;49.142;9.232;2023-06-14T05:22:52;19.60;56.50
20526;DHT22;10421;49.142;9.232;2023-06-14T05:25:21;19.60;56.40
20526;DHT22;10421;49.142;9.232;2023-06-14T05:27:48;19.60;56.40
20526;DHT22;10421;49.142;9.232;2023-06-14T05:30:15;19.60;56.50
20526;DHT22;10421;49.142;9.232;2023-06-14T05:32:42;19.60;56.60
20526;DHT22;10421;49.142;9.232;2023-06-14T05:35:09;19.70;56.70
20526;DHT22;10421;49.142;9.232;2023-06-14T05:37:36;19.70;56.60
20526;DHT22;10421;49.142;9.232;2023-06-14T05:40:03;19.60;56.60
20526;DHT22;10421;49.142;9.232;2023-06-14T05:42:33;19.70;56.60
20526;DHT22;10421;49.142;9.232;2023-06-14T05:44:59;19.70;56.70
20526;DHT22;10421;49.142;9.232;2023-06-14T05:47:26;19.60;56.70
20526;DHT22;10421;49.142;9.232;2023-06-14T05:49:53;19.60;56.70
20526;DHT22;10421;49.142;9.232;2023-06-14T05:52:20;19.60;56.80
20526;DHT22;10421;49.142;9.232;2023-06-14T05:54:47;19.60;56.90
20526;DHT22;10421;49.142;9.232;2023-06-14T05:57:14;19.60;57.10
20526;DHT22;10421;49.142;9.232;2023-06-14T05:59:42;19.60;57.10
20526;DHT22;10421;49.142;9.232;2023-06-14T06:02:09;19.70;57.40
20526;DHT22;10421;49.142;9.232;2023-06-14T06:04:36;19.70;57.70
20526;DHT22;10421;49.142;9.232;2023-06-14T06:07:03;19.80;57.70
20526;DHT22;10421;49.142;9.232;2023-06-14T06:09:30;19.80;57.90
20526;DHT22;10421;49.142;9.232;2023-06-14T06:11:57;19.90;57.60
20526;DHT22;10421;49.142;9.232;2023-06-14T06:14:24;19.80;57.50
20526;DHT22;10421;49.142;9.232;2023-06-14T06:16:52;19.90;57.80
20526;DHT22;10421;49.142;9.232;2023-06-14T06:19:19;19.90;57.80
20526;DHT22;10421;49.142;9.232;2023-06-14T06:21:45;20.00;57.70
20526;DHT22;10421;49.142;9.232;2023-06-14T06:24:13;20.10;57.80
20526;DHT22;10421;49.142;9.232;2023-06-14T06:26:40;20.10;57.80
20526;DHT22;10421;49.142;9.232;2023-06-14T06:29:06;20.30;57.70
20526;DHT22;10421;49.142;9.232;2023-06-14T06:31:33;20.40;57.50
20526;DHT22;10421;49.142;9.232;2023-06-14T06:34:01;20.50;57.50
20526;DHT22;10421;49.142;9.232;2023-06-14T06:36:28;20.60;57.20
20526;DHT22;10421;49.142;9.232;2023-06-14T06:38:55;20.60;57.00
20526;DHT22;10421;49.142;9.232;2023-06-14T06:41:21;20.70;57.00
20526;DHT22;10421;49.142;9.232;2023-06-14T06:43:48;20.70;56.90
20526;DHT22;10421;49.142;9.232;2023-06-14T06:46:15;20.80;57.10
20526;DHT22;10421;49.142;9.232;2023-06-14T06:48:43;20.90;57.00
20526;DHT22;10421;49.142;9.232;2023-06-14T06:51:11;21.00;57.00
20526;DHT22;10421;49.142;9.232;2023-06-14T06:53:38;21.00;56.90
20526;DHT22;10421;49.142;9.232;2023-06-14T06:56:05;21.10;56.70
20526;DHT22;10421;49.142;9.232;2023-06-14T06:58:32;21.10;56.70
20526;DHT22;10421;49.142;9.232;2023-06-14T07:00:58;21.10;56.80
20526;DHT22;10421;49.142;9.232;2023-06-14T07:03:25;21.30;56.90
20526;DHT22;10421;49.142;9.232;2023-06-14T07:05:52;21.40;56.80
20526;DHT22;10421;49.142;9.232;2023-06-14T07:08:20;21.50;56.30
20526;DHT22;10421;49.142;9.232;2023-06-14T07:10:46;21.50;56.00
20526;DHT22;10421;49.142;9.232;2023-06-14T07:13:13;21.60;56.00
20526;DHT22;10421;49.142;9.232;2023-06-14T07:15:40;21.70;55.80
20526;DHT22;10421;49.142;9.232;2023-06-14T07:18:07;21.70;55.70
20526;DHT22;10421;49.142;9.232;2023-06-14T07:20:34;21.70;55.70
20526;DHT22;10421;49.142;9.232;2023-06-14T07:23:03;21.80;55.60
20526;DHT22;10421;49.142;9.232;2023-06-14T07:25:32;21.80;55.60
20526;DHT22;10421;49.142;9.232;2023-06-14T07:27:58;21.80;55.70
20526;DHT22;10421;49.142;9.232;2023-06-14T07:30:25;22.00;55.60
20526;DHT22;10421;49.142;9.232;2023-06-14T07:32:52;22.10;56.00
20526;DHT22;10421;49.142;9.232;2023-06-14T07:35:19;22.20;54.80
20526;DHT22;10421;49.142;9.232;2023-06-14T07:37:46;22.30;54.90
20526;DHT22;10421;49.142;9.232;2023-06-14T07:40:13;22.40;54.70
20526;DHT22;10421;49.142;9.232;2023-06-14T07:42:42;22.40;54.50
20526;DHT22;10421;49.142;9.232;2023-06-14T07:45:09;22.50;54.60
20526;DHT22;10421;49.142;9.232;2023-06-14T07:47:36;22.60;54.60
20526;DHT22;10421;49.142;9.232;2023-06-14T07:50:03;22.70;54.30
20526;DHT22;10421;49.142;9.232;2023-06-14T07:52:30;22.80;53.80
20526;DHT22;10421;49.142;9.232;2023-06-14T07:54:56;22.80;53.70
20526;DHT22;10421;49.142;9.232;2023-06-14T07:57:24;22.90;53.20
20526;DHT22;10421;49.142;9.232;2023-06-14T07:59:52;22.90;52.80
20526;DHT22;10421;49.142;9.232;2023-06-14T08:02:18;23.00;52.70
20526;DHT22;10421;49.142;9.232;2023-06-14T08:04:45;23.00;52.90
20526;DHT22;10421;49.142;9.232;2023-06-14T08:07:13;23.10;53.00
20526;DHT22;10421;49.142;9.232;2023-06-14T08:09:40;23.20;52.60
20526;DHT22;10421;49.142;9.232;2023-06-14T08:12:08;23.30;52.50
20526;DHT22;10421;49.142;9.232;2023-06-14T08:14:36;23.40;52.30
20526;DHT22;10421;49.142;9.232;2023-06-14T08:17:04;23.40;52.40
20526;DHT22;10421;49.142;9.232;2023-06-14T08:19:31;23.50;52.80
20526;DHT22;10421;49.142;9.232;2023-06-14T08:21:57;23.60;52.50
20526;DHT22;10421;49.142;9.232;2023-06-14T08:24:25;23.60;52.30
20526;DHT22;10421;49.142;9.232;2023-06-14T08:26:52;23.70;52.10
20526;DHT22;10421;49.142;9.232;2023-06-14T08:29:19;23.80;51.70
20526;DHT22;10421;49.142;9.232;2023-06-14T08:31:47;23.90;51.60
20526;DHT22;10421;49.142;9.232;2023-06-14T08:34:15;24.00;52.00
20526;DHT22;10421;49.142;9.232;2023-06-14T08:36:42;24.00;51.70
20526;DHT22;10421;49.142;9.232;2023-06-14T08:39:08;24.10;51.60
20526;DHT22;10421;49.142;9.232;2023-06-14T08:41:35;24.20;52.00
20526;DHT22;10421;49.142;9.232;2023-06-14T08:44:02;24.30;52.10
20526;DHT22;10421;49.142;9.232;2023-06-14T08:46:30;24.50;51.70
20526;DHT22;10421;49.142;9.232;2023-06-14T08:48:59;24.60;51.60
20526;DHT22;10421;49.142;9.232;2023-06-14T08:51:38;24.70;51.20
20526;DHT22;10421;49.142;9.232;2023-06-14T08:54:06;24.80;51.00
20526;DHT22;10421;49.142;9.232;2023-06-14T08:56:34;24.80;50.50
20526;DHT22;10421;49.142;9.232;2023-06-14T08:59:04;24.90;50.40
20526;DHT22;10421;49.142;9.232;2023-06-14T09:01:34;25.00;50.80
20526;DHT22;10421;49.142;9.232;2023-06-14T09:04:01;25.00;49.90
20526;DHT22;10421;49.142;9.232;2023-06-14T09:06:31;25.00;49.90
20526;DHT22;10421;49.142;9.232;2023-06-14T09:08:59;25.10;49.70
20526;DHT22;10421;49.142;9.232;2023-06-14T09:11:26;25.20;50.00
20526;DHT22;10421;49.142;9.232;2023-06-14T09:13:53;25.30;49.90
20526;DHT22;10421;49.142;9.232;2023-06-14T09:16:20;25.40;49.50
20526;DHT22;10421;49.142;9.232;2023-06-14T09:18:47;25.50;49.20
20526;DHT22;10421;49.142;9.232;2023-06-14T09:21:14;25.60;49.00
20526;DHT22;10421;49.142;9.232;2023-06-14T09:23:42;25.60;48.90
20526;DHT22;10421;49.142;9.232;2023-06-14T09:26:11;25.60;48.80
20526;DHT22;10421;49.142;9.232;2023-06-14T09:28:41;25.80;48.80
20526;DHT22;10421;49.142;9.232;2023-06-14T09:31:10;25.90;48.50
20526;DHT22;10421;49.142;9.232;2023-06-14T09:33:37;25.90;48.00
20526;DHT22;10421;49.142;9.232;2023-06-14T09:36:04;26.00;48.00
20526;DHT22;10421;49.142;9.232;2023-06-14T09:38:31;26.10;47.80
20526;DHT22;10421;49.142;9.232;2023-06-14T09:40:58;26.20;47.50
20526;DHT22;10421;49.142;9.232;2023-06-14T09:43:27;26.30;47.70
20526;DHT22;10421;49.142;9.232;2023-06-14T09:45:54;26.40;47.80
20526;DHT22;10421;49.142;9.232;2023-06-14T09:48:21;26.60;47.30
20526;DHT22;10421;49.142;9.232;2023-06-14T09:50:50;26.80;46.40
20526;DHT22;10421;49.142;9.232;2023-06-14T09:53:21;27.00;46.40
20526;DHT22;10421;49.142;9.232;2023-06-14T09:55:49;27.00;46.00
20526;DHT22;10421;49.142;9.232;2023-06-14T09:58:19;27.10;45.70
20526;DHT22;10421;49.142;9.232;2023-06-14T10:00:50;27.20;45.20
20526;DHT22;10421;49.142;9.232;2023-06-14T10:03:21;27.20;44.10
20526;DHT22;10421;49.142;9.232;2023-06-14T10:05:50;27.20;44.60
20526;DHT22;10421;49.142;9.232;2023-06-14T10:08:19;27.20;44.60
20526;DHT22;10421;49.142;9.232;2023-06-14T10:10:46;27.30;43.90
20526;DHT22;10421;49.142;9.232;2023-06-14T10:13:13;27.40;43.40
20526;DHT22;10421;49.142;9.232;2023-06-14T10:15:45;27.40;43.20
20526;DHT22;10421;49.142;9.232;2023-06-14T10:18:19;27.50;43.60
20526;DHT22;10421;49.142;9.232;2023-06-14T10:20:55;27.50;43.20
20526;DHT22;10421;49.142;9.232;2023-06-14T10:23:26;27.50;43.60
20526;DHT22;10421;49.142;9.232;2023-06-14T10:25:57;27.50;43.80
20526;DHT22;10421;49.142;9.232;2023-06-14T10:28:25;27.50;44.00
20526;DHT22;10421;49.142;9.232;2023-06-14T10:31:05;27.50;44.00
20526;DHT22;10421;49.142;9.232;2023-06-14T10:33:34;27.60;43.80
20526;DHT22;10421;49.142;9.232;2023-06-14T10:36:24;27.60;43.80
20526;DHT22;10421;49.142;9.232;2023-06-14T10:39:00;27.70;43.70
20526;DHT22;10421;49.142;9.232;2023-06-14T10:41:28;27.90;43.10
20526;DHT22;10421;49.142;9.232;2023-06-14T10:47:00;28.10;41.90
20526;DHT22;10421;49.142;9.232;2023-06-14T10:49:38;28.30;42.20
20526;DHT22;10421;49.142;9.232;2023-06-14T10:52:08;28.30;41.00
20526;DHT22;10421;49.142;9.232;2023-06-14T10:57:42;28.40;40.70
20526;DHT22;10421;49.142;9.232;2023-06-14T11:00:12;28.40;40.60
20526;DHT22;10421;49.142;9.232;2023-06-14T11:02:55;28.30;39.80
20526;DHT22;10421;49.142;9.232;2023-06-14T11:05:28;28.30;40.10
20526;DHT22;10421;49.142;9.232;2023-06-14T11:10:54;28.40;41.20
20526;DHT22;10421;49.142;9.232;2023-06-14T11:13:26;28.60;41.40
20526;DHT22;10421;49.142;9.232;2023-06-14T11:15:53;28.70;41.50
20526;DHT22;10421;49.142;9.232;2023-06-14T11:18:22;28.60;40.90
20526;DHT22;10421;49.142;9.232;2023-06-14T11:20:51;28.40;41.10
20526;DHT22;10421;49.142;9.232;2023-06-14T11:23:17;28.40;41.20
20526;DHT22;10421;49.142;9.232;2023-06-14T11:25:50;28.50;41.00
20526;DHT22;10421;49.142;9.232;2023-06-14T11:28:16;28.70;41.00
20526;DHT22;10421;49.142;9.232;2023-06-14T11:30:45;28.80;41.20
20526;DHT22;10421;49.142;9.232;2023-06-14T11:33:17;28.90;40.50
20526;DHT22;10421;49.142;9.232;2023-06-14T11:35:44;29.10;40.40
20526;DHT22;10421;49.142;9.232;2023-06-14T11:38:13;29.20;39.80
20526;DHT22;10421;49.142;9.232;2023-06-14T11:40:40;29.40;39.80
20526;DHT22;10421;49.142;9.232;2023-06-14T11:43:06;29.50;39.40
20526;DHT22;10421;49.142;9.232;2023-06-14T11:45:33;29.60;39.10
20526;DHT22;10421;49.142;9.232;2023-06-14T11:48:00;29.70;38.20
20526;DHT22;10421;49.142;9.232;2023-06-14T11:50:28;29.70;37.80
20526;DHT22;10421;49.142;9.232;2023-06-14T11:52:55;29.70;37.70
20526;DHT22;10421;49.142;9.232;2023-06-14T11:55:23;29.70;37.50
20526;DHT22;10421;49.142;9.232;2023-06-14T11:57:50;29.90;37.90
20526;DHT22;10421;49.142;9.232;2023-06-14T12:00:18;30.00;38.20
20526;DHT22;10421;49.142;9.232;2023-06-14T12:02:53;30.10;37.30
20526;DHT22;10421;49.142;9.232;2023-06-14T12:05:21;30.10;36.90
20526;DHT22;10421;49.142;9.232;2023-06-14T12:07:48;30.30;36.50
20526;DHT22;10421;49.142;9.232;2023-06-14T12:10:16;30.40;36.00
20526;DHT22;10421;49.142;9.232;2023-06-14T12:12:45;30.40;35.60
20526;DHT22;10421;49.142;9.232;2023-06-14T12:15:11;30.50;35.90
20526;DHT22;10421;49.142;9.232;2023-06-14T12:17:39;30.70;36.10
20526;DHT22;10421;49.142;9.232;2023-06-14T12:20:09;30.70;36.80
20526;DHT22;10421;49.142;9.232;2023-06-14T12:22:39;30.80;36.40
20526;DHT22;10421;49.142;9.232;2023-06-14T12:25:06;30.80;36.70
20526;DHT22;10421;49.142;9.232;2023-06-14T12:27:35;30.60;37.10
20526;DHT22;10421;49.142;9.232;2023-06-14T12:30:04;30.50;37.20
20526;DHT22;10421;49.142;9.232;2023-06-14T12:32:33;30.40;37.40
20526;DHT22;10421;49.142;9.232;2023-06-14T12:34:59;30.50;37.70
20526;DHT22;10421;49.142;9.232;2023-06-14T12:37:26;30.60;37.50
20526;DHT22;10421;49.142;9.232;2023-06-14T12:39:53;30.70;36.90
20526;DHT22;10421;49.142;9.232;2023-06-14T12:42:19;30.60;37.00
20526;DHT22;10421;49.142;9.232;2023-06-14T12:44:46;30.70;36.70
20526;DHT22;10421;49.142;9.232;2023-06-14T12:47:14;30.80;36.40
20526;DHT22;10421;49.142;9.232;2023-06-14T12:49:41;30.80;35.80
20526;DHT22;10421;49.142;9.232;2023-06-14T12:52:08;30.90;35.90
20526;DHT22;10421;49.142;9.232;2023-06-14T12:54:35;31.00;36.40
20526;DHT22;10421;49.142;9.232;2023-06-14T12:57:02;30.90;36.60
20526;DHT22;10421;49.142;9.232;2023-06-14T12:59:29;30.80;36.50
20526;DHT22;10421;49.142;9.232;2023-06-14T13:02:00;30.60;37.10
20526;DHT22;10421;49.142;9.232;2023-06-14T13:04:27;30.40;37.40
20526;DHT22;10421;49.142;9.232;2023-06-14T13:06:55;30.30;37.00
20526;DHT22;10421;49.142;9.232;2023-06-14T13:09:21;30.10;37.40
20526;DHT22;10421;49.142;9.232;2023-06-14T13:11:48;30.00;37.80
20526;DHT22;10421;49.142;9.232;2023-06-14T13:14:15;29.90;38.00
20526;DHT22;10421;49.142;9.232;2023-06-14T13:16:42;29.80;37.90
20526;DHT22;10421;49.142;9.232;2023-06-14T13:19:09;29.80;37.70
20526;DHT22;10421;49.142;9.232;2023-06-14T13:21:37;29.70;37.70
20526;DHT22;10421;49.142;9.232;2023-06-14T13:24:05;29.50;37.70
20526;DHT22;10421;49.142;9.232;2023-06-14T13:26:33;29.50;38.10
20526;DHT22;10421;49.142;9.232;2023-06-14T13:29:00;29.40;38.30
20526;DHT22;10421;49.142;9.232;2023-06-14T13:31:27;29.40;38.00
20526;DHT22;10421;49.142;9.232;2023-06-14T13:33:54;29.50;37.60
20526;DHT22;10421;49.142;9.232;2023-06-14T13:36:21;29.60;37.60
20526;DHT22;10421;49.142;9.232;2023-06-14T13:38:49;29.80;37.80
20526;DHT22;10421;49.142;9.232;2023-06-14T13:41:17;29.80;38.30
20526;DHT22;10421;49.142;9.232;2023-06-14T13:43:43;30.00;38.30
20526;DHT22;10421;49.142;9.232;2023-06-14T13:46:10;30.10;38.40
20526;DHT22;10421;49.142;9.232;2023-06-14T13:48:37;30.20;38.30
20526;DHT22;10421;49.142;9.232;2023-06-14T13:51:04;30.20;38.30
20526;DHT22;10421;49.142;9.232;2023-06-14T13:53:31;30.30;38.10
20526;DHT22;10421;49.142;9.232;2023-06-14T13:55:59;30.50;38.00
20526;DHT22;10421;49.142;9.232;2023-06-14T13:58:25;30.40;38.20
20526;DHT22;10421;49.142;9.232;2023-06-14T14:00:52;30.40;38.20
20526;DHT22;10421;49.142;9.232;2023-06-14T14:03:20;30.50;38.00
20526;DHT22;10421;49.142;9.232;2023-06-14T14:05:47;30.50;37.80
20526;DHT22;10421;49.142;9.232;2023-06-14T14:08:14;30.60;37.50
20526;DHT22;10421;49.142;9.232;2023-06-14T14:10:40;30.60;37.40
20526;DHT22;10421;49.142;9.232;2023-06-14T14:13:09;30.50;38.00
20526;DHT22;10421;49.142;9.232;2023-06-14T14:15:36;30.50;37.30
20526;DHT22;10421;49.142;9.232;2023-06-14T14:18:03;30.40;37.00
20526;DHT22;10421;49.142;9.232;2023-06-14T14:20:30;30.40;37.20
20526;DHT22;10421;49.142;9.232;2023-06-14T14:22:57;30.30;37.30
20526;DHT22;10421;49.142;9.232;2023-06-14T14:25:24;30.30;37.30
20526;DHT22;10421;49.142;9.232;2023-06-14T14:27:51;30.30;37.30
20526;DHT22;10421;49.142;9.232;2023-06-14T14:30:21;30.30;36.80
20526;DHT22;10421;49.142;9.232;2023-06-14T14:32:49;30.40;36.50
20526;DHT22;10421;49.142;9.232;2023-06-14T14:35:17;30.40;36.30
20526;DHT22;10421;49.142;9.232;2023-06-14T14:37:44;30.50;36.50
20526;DHT22;10421;49.142;9.232;2023-06-14T14:40:12;30.60;36.80
20526;DHT22;10421;49.142;9.232;2023-06-14T14:42:38;30.80;36.90
20526;DHT22;10421;49.142;9.232;2023-06-14T14:45:06;30.80;36.80
20526;DHT22;10421;49.142;9.232;2023-06-14T14:47:35;30.80;36.40
20526;DHT22;10421;49.142;9.232;2023-06-14T14:50:01;30.80;36.30
20526;DHT22;10421;49.142;9.232;2023-06-14T14:52:28;30.90;36.50
20526;DHT22;10421;49.142;9.232;2023-06-14T14:54:55;30.80;36.70
20526;DHT22;10421;49.142;9.232;2023-06-14T14:57:22;30.70;36.90
20526;DHT22;10421;49.142;9.232;2023-06-14T14:59:48;30.70;36.90
20526;DHT22;10421;49.142;9.232;2023-06-14T15:02:15;30.70;36.60
20526;DHT22;10421;49.142;9.232;2023-06-14T15:04:44;30.60;36.20
20526;DHT22;10421;49.142;9.232;2023-06-14T15:07:11;30.60;36.20
20526;DHT22;10421;49.142;9.232;2023-06-14T15:09:41;30.60;36.40
20526;DHT22;10421;49.142;9.232;2023-06-14T15:12:10;30.70;36.60
20526;DHT22;10421;49.142;9.232;2023-06-14T15:14:37;30.80;36.70
20526;DHT22;10421;49.142;9.232;2023-06-14T15:17:04;30.70;36.00
20526;DHT22;10421;49.142;9.232;2023-06-14T15:19:30;30.70;36.20
20526;DHT22;10421;49.142;9.232;2023-06-14T15:22:00;30.60;36.70
20526;DHT22;10421;49.142;9.232;2023-06-14T15:24:27;30.50;37.60
20526;DHT22;10421;49.142;9.232;2023-06-14T15:26:56;30.30;37.30
20526;DHT22;10421;49.142;9.232;2023-06-14T15:29:22;30.20;37.50
20526;DHT22;10421;49.142;9.232;2023-06-14T15:31:51;30.10;37.70
20526;DHT22;10421;49.142;9.232;2023-06-14T15:34:20;30.00;37.90
20526;DHT22;10421;49.142;9.232;2023-06-14T15:36:47;29.90;38.20
20526;DHT22;10421;49.142;9.232;2023-06-14T15:39:15;29.70;38.50
20526;DHT22;10421;49.142;9.232;2023-06-14T15:41:41;29.60;38.60
20526;DHT22;10421;49.142;9.232;2023-06-14T15:44:08;29.50;38.70